sensor_id;sensor_type;location;lat;lon;timestamp;temperature;humidity
19152;DHT22;9708;53.114;9.388;2023-12-22T00:01:18;4.90;99.90
19152;DHT22;9708;53.114;9.388;2023-12-22T00:03:45;4.80;99.90
19152;DHT22;9708;53.114;9.388;2023-12-22T00:06:13;4.80;99.90
19152;DHT22;9708;53.114;9.388;2023-12-22T00:08:40;4.60;99.90
19152;DHT22;9708;53.114;9.388;2023-12-22T00:11:07;4.50;99.90
19152;DHT22;9708;53.114;9.388;2023-12-22T00:13:34;4.50;99.90
19152;DHT22;9708;53.114;9.388;2023-12-22T00:16:01;4.40;99.90
19152;DHT22;9708;53.114;9.388;2023-12-22T00:18:27;4.60;99.90
19152;DHT22;9708;53.114;9.388;2023-12-22T00:20:54;4.60;99.90
19152;DHT22;9708;53.114;9.388;2023-12-22T00:23:22;4.60;99.90
19152;DHT22;9708;53.114;9.388;2023-12-22T00:25:49;4.60;99.90
19152;DHT22;9708;53.114;9.388;2023-12-22T00:28:16;4.50;99.90
19152;DHT22;9708;53.114;9.388;2023-12-22T00:30:43;4.50;99.90
19152;DHT22;9708;53.114;9.388;2023-12-22T00:33:10;4.30;99.90
19152;DHT22;9708;53.114;9.388;2023-12-22T00:35:37;4.30;99.90
19152;DHT22;9708;53.114;9.388;2023-12-22T00:38:04;4.20;99.90
19152;DHT22;9708;53.114;9.388;2023-12-22T00:40:32;4.20;99.90
19152;DHT22;9708;53.114;9.388;2023-12-22T00:42:59;4.20;99.90
19152;DHT22;9708;53.114;9.388;2023-12-22T00:45:25;4.20;99.90
19152;DHT22;9708;53.114;9.388;2023-12-22T00:47:52;4.20;99.90
19152;DHT22;9708;53.114;9.388;2023-12-22T00:50:19;4.30;99.90
19152;DHT22;9708;53.114;9.388;2023-12-22T00:52:46;4.30;99.90
19152;DHT22;9708;53.114;9.388;2023-12-22T00:55:13;4.40;99.90
19152;DHT22;9708;53.114;9.388;2023-12-22T00:57:42;4.50;99.90
19152;DHT22;9708;53.114;9.388;2023-12-22T01:00:10;4.60;99.90
19152;DHT22;9708;53.114;9.388;2023-12-22T01:02:38;4.70;99.90
19152;DHT22;9708;53.114;9.388;2023-12-22T01:05:05;4.80;99.90
19152;DHT22;9708;53.114;9.388;2023-12-22T01:07:32;4.80;99.90
19152;DHT22;9708;53.114;9.388;2023-12-22T01:09:59;4.80;99.90
19152;DHT22;9708;53.114;9.388;2023-12-22T01:12:27;4.80;99.90
19152;DHT22;9708;53.114;9.388;2023-12-22T01:14:55;4.70;99.90
19152;DHT22;9708;53.114;9.388;2023-12-22T01:17:23;4.80;99.90
19152;DHT22;9708;53.114;9.388;2023-12-22T01:19:49;4.70;99.90
19152;DHT22;9708;53.114;9.388;2023-12-22T01:22:17;4.60;99.90
19152;DHT22;9708;53.114;9.388;2023-12-22T01:24:43;4.60;99.90
19152;DHT22;9708;53.114;9.388;2023-12-22T01:27:11;4.60;99.90
19152;DHT22;9708;53.114;9.388;2023-12-22T01:29:38;4.60;99.90
19152;DHT22;9708;53.114;9.388;2023-12-22T01:32:06;4.60;99.90
19152;DHT22;9708;53.114;9.388;2023-12-22T01:34:33;4.60;99.90
19152;DHT22;9708;53.114;9.388;2023-12-22T01:37:00;4.70;99.90
19152;DHT22;9708;53.114;9.388;2023-12-22T01:39:27;4.70;99.90
19152;DHT22;9708;53.114;9.388;2023-12-22T01:41:54;4.70;99.90
19152;DHT22;9708;53.114;9.388;2023-12-22T01:44:21;4.80;99.90
19152;DHT22;9708;53.114;9.388;2023-12-22T01:46:49;4.80;99.90
19152;DHT22;9708;53.114;9.388;2023-12-22T01:49:17;4.80;99.90
19152;DHT22;9708;53.114;9.388;2023-12-22T01:51:45;4.80;99.90
19152;DHT22;9708;53.114;9.388;2023-12-22T01:54:12;4.80;99.90
19152;DHT22;9708;53.114;9.388;2023-12-22T01:56:40;4.80;99.90
19152;DHT22;9708;53.114;9.388;2023-12-22T01:59:07;4.80;99.90
19152;DHT22;9708;53.114;9.388;2023-12-22T02:01:35;4.90;99.90
19152;DHT22;9708;53.114;9.388;2023-12-22T02:04:02;4.90;99.90
19152;DHT22;9708;53.114;9.388;2023-12-22T02:06:33;4.80;99.90
19152;DHT22;9708;53.114;9.388;2023-12-22T02:09:02;4.70;99.90
19152;DHT22;9708;53.114;9.388;2023-12-22T02:11:29;4.70;99.90
19152;DHT22;9708;53.114;9.388;2023-12-22T02:13:56;4.70;99.90
19152;DHT22;9708;53.114;9.388;2023-12-22T02:16:29;4.60;99.90
19152;DHT22;9708;53.114;9.388;2023-12-22T02:18:59;4.60;99.90
19152;DHT22;9708;53.114;9.388;2023-12-22T02:21:32;4.60;99.90
19152;DHT22;9708;53.114;9.388;2023-12-22T02:24:00;4.60;99.90
19152;DHT22;9708;53.114;9.388;2023-12-22T02:26:32;4.60;99.90
19152;DHT22;9708;53.114;9.388;2023-12-22T02:29:00;4.60;99.90
19152;DHT22;9708;53.114;9.388;2023-12-22T02:31:33;4.70;99.90
19152;DHT22;9708;53.114;9.388;2023-12-22T02:34:03;4.70;99.90
19152;DHT22;9708;53.114;9.388;2023-12-22T02:36:34;4.70;99.90
19152;DHT22;9708;53.114;9.388;2023-12-22T02:39:04;4.70;99.90
19152;DHT22;9708;53.114;9.388;2023-12-22T02:41:32;4.70;99.90
19152;DHT22;9708;53.114;9.388;2023-12-22T02:43:59;4.70;99.90
19152;DHT22;9708;53.114;9.388;2023-12-22T02:46:26;4.70;99.90
19152;DHT22;9708;53.114;9.388;2023-12-22T02:48:52;4.70;99.90
19152;DHT22;9708;53.114;9.388;2023-12-22T02:51:19;4.80;99.90
19152;DHT22;9708;53.114;9.388;2023-12-22T02:53:46;4.80;99.90
19152;DHT22;9708;53.114;9.388;2023-12-22T02:56:14;4.80;99.90
19152;DHT22;9708;53.114;9.388;2023-12-22T02:58:41;4.90;99.90
19152;DHT22;9708;53.114;9.388;2023-12-22T03:01:08;4.80;99.90
19152;DHT22;9708;53.114;9.388;2023-12-22T03:03:35;4.80;99.90
19152;DHT22;9708;53.114;9.388;2023-12-22T03:06:02;4.80;99.90
19152;DHT22;9708;53.114;9.388;2023-12-22T03:08:29;4.80;99.90
19152;DHT22;9708;53.114;9.388;2023-12-22T03:10:55;4.80;99.90
19152;DHT22;9708;53.114;9.388;2023-12-22T03:13:24;4.80;99.90
19152;DHT22;9708;53.114;9.388;2023-12-22T03:15:51;4.80;99.90
19152;DHT22;9708;53.114;9.388;2023-12-22T03:18:18;4.80;99.90
19152;DHT22;9708;53.114;9.388;2023-12-22T03:20:44;4.80;99.90
19152;DHT22;9708;53.114;9.388;2023-12-22T03:23:11;4.80;99.90
19152;DHT22;9708;53.114;9.388;2023-12-22T03:25:38;4.70;99.90
19152;DHT22;9708;53.114;9.388;2023-12-22T03:28:05;4.70;99.90
19152;DHT22;9708;53.114;9.388;2023-12-22T03:30:34;4.70;99.90
19152;DHT22;9708;53.114;9.388;2023-12-22T03:33:03;4.70;99.90
19152;DHT22;9708;53.114;9.388;2023-12-22T03:35:31;4.70;99.90
19152;DHT22;9708;53.114;9.388;2023-12-22T03:37:58;4.70;99.90
19152;DHT22;9708;53.114;9.388;2023-12-22T03:40:26;4.70;99.90
19152;DHT22;9708;53.114;9.388;2023-12-22T03:42:53;4.80;99.90
19152;DHT22;9708;53.114;9.388;2023-12-22T03:45:19;4.80;99.90
19152;DHT22;9708;53.114;9.388;2023-12-22T03:47:48;4.90;99.90
19152;DHT22;9708;53.114;9.388;2023-12-22T03:50:15;4.90;99.90
19152;DHT22;9708;53.114;9.388;2023-12-22T03:52:41;4.80;99.90
19152;DHT22;9708;53.114;9.388;2023-12-22T03:55:08;4.70;99.90
19152;DHT22;9708;53.114;9.388;2023-12-22T03:57:35;4.70;99.90
19152;DHT22;9708;53.114;9.388;2023-12-22T04:00:02;4.60;99.90
19152;DHT22;9708;53.114;9.388;2023-12-22T04:02:30;4.60;99.90
19152;DHT22;9708;53.114;9.388;2023-12-22T04:04:58;4.60;99.90
19152;DHT22;9708;53.114;9.388;2023-12-22T04:07:25;4.60;99.90
19152;DHT22;9708;53.114;9.388;2023-12-22T04:09:52;4.50;99.90
19152;DHT22;9708;53.114;9.388;2023-12-22T04:12:18;4.50;99.90
19152;DHT22;9708;53.114;9.388;2023-12-22T04:14:46;4.60;99.90
19152;DHT22;9708;53.114;9.388;2023-12-22T04:17:13;4.60;99.90
19152;DHT22;9708;53.114;9.388;2023-12-22T04:19:40;4.70;99.90
19152;DHT22;9708;53.114;9.388;2023-12-22T04:22:08;4.70;99.90
19152;DHT22;9708;53.114;9.388;2023-12-22T04:24:35;4.70;99.90
19152;DHT22;9708;53.114;9.388;2023-12-22T04:27:02;4.80;99.90
19152;DHT22;9708;53.114;9.388;2023-12-22T04:29:29;4.50;99.90
19152;DHT22;9708;53.114;9.388;2023-12-22T04:31:56;4.20;99.90
19152;DHT22;9708;53.114;9.388;2023-12-22T04:34:22;4.00;99.90
19152;DHT22;9708;53.114;9.388;2023-12-22T04:36:49;3.90;99.90
19152;DHT22;9708;53.114;9.388;2023-12-22T04:39:17;4.00;99.90
19152;DHT22;9708;53.114;9.388;2023-12-22T04:41:44;4.00;99.90
19152;DHT22;9708;53.114;9.388;2023-12-22T04:44:11;4.00;99.90
19152;DHT22;9708;53.114;9.388;2023-12-22T04:46:38;4.00;99.90
19152;DHT22;9708;53.114;9.388;2023-12-22T04:49:05;4.00;99.90
19152;DHT22;9708;53.114;9.388;2023-12-22T04:51:31;3.90;99.90
19152;DHT22;9708;53.114;9.388;2023-12-22T04:53:58;3.90;99.90
19152;DHT22;9708;53.114;9.388;2023-12-22T04:56:26;3.80;99.90
19152;DHT22;9708;53.114;9.388;2023-12-22T04:58:53;3.70;99.90
19152;DHT22;9708;53.114;9.388;2023-12-22T05:01:20;3.70;99.90
19152;DHT22;9708;53.114;9.388;2023-12-22T05:03:47;3.60;99.90
19152;DHT22;9708;53.114;9.388;2023-12-22T05:06:14;3.60;99.90
19152;DHT22;9708;53.114;9.388;2023-12-22T05:08:41;3.60;99.90
19152;DHT22;9708;53.114;9.388;2023-12-22T05:11:08;3.50;99.90
19152;DHT22;9708;53.114;9.388;2023-12-22T05:13:36;3.50;99.90
19152;DHT22;9708;53.114;9.388;2023-12-22T05:16:03;3.40;99.90
19152;DHT22;9708;53.114;9.388;2023-12-22T05:18:31;3.40;99.90
19152;DHT22;9708;53.114;9.388;2023-12-22T05:20:58;3.50;99.90
19152;DHT22;9708;53.114;9.388;2023-12-22T05:23:25;3.50;99.90
19152;DHT22;9708;53.114;9.388;2023-12-22T05:25:52;3.60;99.90
19152;DHT22;9708;53.114;9.388;2023-12-22T05:28:18;3.70;99.90
19152;DHT22;9708;53.114;9.388;2023-12-22T05:30:47;3.80;99.90
19152;DHT22;9708;53.114;9.388;2023-12-22T05:33:14;4.00;99.90
19152;DHT22;9708;53.114;9.388;2023-12-22T05:35:40;4.10;99.90
19152;DHT22;9708;53.114;9.388;2023-12-22T05:38:07;4.20;99.90
19152;DHT22;9708;53.114;9.388;2023-12-22T05:40:34;4.20;99.90
19152;DHT22;9708;53.114;9.388;2023-12-22T05:43:01;4.30;99.90
19152;DHT22;9708;53.114;9.388;2023-12-22T05:45:28;4.30;99.90
19152;DHT22;9708;53.114;9.388;2023-12-22T05:47:56;4.30;99.90
19152;DHT22;9708;53.114;9.388;2023-12-22T05:50:23;4.30;99.90
19152;DHT22;9708;53.114;9.388;2023-12-22T05:52:50;4.40;99.90
19152;DHT22;9708;53.114;9.388;2023-12-22T05:55:17;4.50;99.90
19152;DHT22;9708;53.114;9.388;2023-12-22T05:57:44;4.60;99.90
19152;DHT22;9708;53.114;9.388;2023-12-22T06:00:12;4.60;99.90
19152;DHT22;9708;53.114;9.388;2023-12-22T06:02:40;4.50;99.90
19152;DHT22;9708;53.114;9.388;2023-12-22T06:05:09;4.50;99.90
19152;DHT22;9708;53.114;9.388;2023-12-22T06:07:34;4.40;99.90
19152;DHT22;9708;53.114;9.388;2023-12-22T06:10:01;4.30;99.90
19152;DHT22;9708;53.114;9.388;2023-12-22T06:12:28;4.30;99.90
19152;DHT22;9708;53.114;9.388;2023-12-22T06:14:56;4.20;99.90
19152;DHT22;9708;53.114;9.388;2023-12-22T06:17:23;4.20;99.90
19152;DHT22;9708;53.114;9.388;2023-12-22T06:19:50;4.20;99.90
19152;DHT22;9708;53.114;9.388;2023-12-22T06:22:18;4.30;99.90
19152;DHT22;9708;53.114;9.388;2023-12-22T06:24:45;4.20;99.90
19152;DHT22;9708;53.114;9.388;2023-12-22T06:27:12;4.20;99.90
19152;DHT22;9708;53.114;9.388;2023-12-22T06:29:39;4.20;99.90
19152;DHT22;9708;53.114;9.388;2023-12-22T06:32:06;4.20;99.90
19152;DHT22;9708;53.114;9.388;2023-12-22T06:34:33;4.30;99.90
19152;DHT22;9708;53.114;9.388;2023-12-22T06:37:00;4.40;99.90
19152;DHT22;9708;53.114;9.388;2023-12-22T06:39:28;4.40;99.90
19152;DHT22;9708;53.114;9.388;2023-12-22T06:41:55;4.40;99.90
19152;DHT22;9708;53.114;9.388;2023-12-22T06:44:22;4.50;99.90
19152;DHT22;9708;53.114;9.388;2023-12-22T06:46:48;4.50;99.90
19152;DHT22;9708;53.114;9.388;2023-12-22T06:49:15;4.60;99.90
19152;DHT22;9708;53.114;9.388;2023-12-22T06:51:42;4.60;99.90
19152;DHT22;9708;53.114;9.388;2023-12-22T06:54:09;4.60;99.90
19152;DHT22;9708;53.114;9.388;2023-12-22T06:56:37;4.60;99.90
19152;DHT22;9708;53.114;9.388;2023-12-22T06:59:06;4.70;99.90
19152;DHT22;9708;53.114;9.388;2023-12-22T07:01:34;4.60;99.90
19152;DHT22;9708;53.114;9.388;2023-12-22T07:04:02;4.60;99.90
19152;DHT22;9708;53.114;9.388;2023-12-22T07:06:31;4.70;99.90
19152;DHT22;9708;53.114;9.388;2023-12-22T07:09:29;4.60;99.90
19152;DHT22;9708;53.114;9.388;2023-12-22T07:11:57;4.60;99.90
19152;DHT22;9708;53.114;9.388;2023-12-22T07:14:24;4.60;99.90
19152;DHT22;9708;53.114;9.388;2023-12-22T07:16:51;4.60;99.90
19152;DHT22;9708;53.114;9.388;2023-12-22T07:19:18;4.60;99.90
19152;DHT22;9708;53.114;9.388;2023-12-22T07:21:45;4.60;99.90
19152;DHT22;9708;53.114;9.388;2023-12-22T07:24:11;4.50;99.90
19152;DHT22;9708;53.114;9.388;2023-12-22T07:26:38;4.60;99.90
19152;DHT22;9708;53.114;9.388;2023-12-22T07:29:06;4.60;99.90
19152;DHT22;9708;53.114;9.388;2023-12-22T07:31:34;4.60;99.90
19152;DHT22;9708;53.114;9.388;2023-12-22T07:34:00;4.60;99.90
19152;DHT22;9708;53.114;9.388;2023-12-22T07:36:28;4.60;99.90
19152;DHT22;9708;53.114;9.388;2023-12-22T07:38:54;4.60;99.90
19152;DHT22;9708;53.114;9.388;2023-12-22T07:41:22;4.60;99.90
19152;DHT22;9708;53.114;9.388;2023-12-22T07:43:49;4.70;99.90
19152;DHT22;9708;53.114;9.388;2023-12-22T07:46:18;4.80;99.90
19152;DHT22;9708;53.114;9.388;2023-12-22T07:48:45;4.80;99.90
19152;DHT22;9708;53.114;9.388;2023-12-22T07:51:12;4.80;99.90
19152;DHT22;9708;53.114;9.388;2023-12-22T07:53:39;4.70;99.90
19152;DHT22;9708;53.114;9.388;2023-12-22T07:56:06;4.70;99.90
19152;DHT22;9708;53.114;9.388;2023-12-22T07:58:33;4.70;99.90
19152;DHT22;9708;53.114;9.388;2023-12-22T08:01:00;4.70;99.90
19152;DHT22;9708;53.114;9.388;2023-12-22T08:03:28;4.70;99.90
19152;DHT22;9708;53.114;9.388;2023-12-22T08:05:55;4.70;99.90
19152;DHT22;9708;53.114;9.388;2023-12-22T08:08:22;4.80;99.90
19152;DHT22;9708;53.114;9.388;2023-12-22T08:10:49;4.80;99.90
19152;DHT22;9708;53.114;9.388;2023-12-22T08:13:16;4.90;99.90
19152;DHT22;9708;53.114;9.388;2023-12-22T08:15:43;4.80;99.90
19152;DHT22;9708;53.114;9.388;2023-12-22T08:18:10;4.80;99.90
19152;DHT22;9708;53.114;9.388;2023-12-22T08:20:39;4.90;99.90
19152;DHT22;9708;53.114;9.388;2023-12-22T08:23:06;4.90;99.90
19152;DHT22;9708;53.114;9.388;2023-12-22T08:25:33;5.00;99.90
19152;DHT22;9708;53.114;9.388;2023-12-22T08:27:59;5.10;99.90
19152;DHT22;9708;53.114;9.388;2023-12-22T08:30:27;5.20;99.90
19152;DHT22;9708;53.114;9.388;2023-12-22T08:32:54;5.30;99.90
19152;DHT22;9708;53.114;9.388;2023-12-22T08:35:20;5.30;99.90
19152;DHT22;9708;53.114;9.388;2023-12-22T08:37:49;5.40;99.90
19152;DHT22;9708;53.114;9.388;2023-12-22T08:40:15;5.50;99.90
19152;DHT22;9708;53.114;9.388;2023-12-22T08:42:42;5.70;99.90
19152;DHT22;9708;53.114;9.388;2023-12-22T08:45:09;5.70;99.90
19152;DHT22;9708;53.114;9.388;2023-12-22T08:47:36;5.70;99.90
19152;DHT22;9708;53.114;9.388;2023-12-22T08:50:03;5.70;99.90
19152;DHT22;9708;53.114;9.388;2023-12-22T08:52:33;5.70;99.90
19152;DHT22;9708;53.114;9.388;2023-12-22T08:55:02;5.70;99.90
19152;DHT22;9708;53.114;9.388;2023-12-22T08:57:30;5.80;99.90
19152;DHT22;9708;53.114;9.388;2023-12-22T08:59:57;5.80;99.90
19152;DHT22;9708;53.114;9.388;2023-12-22T09:02:24;5.80;99.90
19152;DHT22;9708;53.114;9.388;2023-12-22T09:04:51;5.80;99.90
19152;DHT22;9708;53.114;9.388;2023-12-22T09:07:18;5.80;99.90
19152;DHT22;9708;53.114;9.388;2023-12-22T09:09:48;5.80;99.90
19152;DHT22;9708;53.114;9.388;2023-12-22T09:12:16;5.80;99.90
19152;DHT22;9708;53.114;9.388;2023-12-22T09:14:43;5.80;99.90
19152;DHT22;9708;53.114;9.388;2023-12-22T09:17:10;5.70;99.90
19152;DHT22;9708;53.114;9.388;2023-12-22T09:19:36;5.70;99.90
19152;DHT22;9708;53.114;9.388;2023-12-22T09:22:04;5.70;99.90
19152;DHT22;9708;53.114;9.388;2023-12-22T09:24:31;5.60;99.90
19152;DHT22;9708;53.114;9.388;2023-12-22T09:26:58;5.50;99.90
19152;DHT22;9708;53.114;9.388;2023-12-22T09:29:29;5.50;99.90
19152;DHT22;9708;53.114;9.388;2023-12-22T09:31:57;5.50;99.90
19152;DHT22;9708;53.114;9.388;2023-12-22T09:34:26;5.50;99.90
19152;DHT22;9708;53.114;9.388;2023-12-22T09:36:53;5.50;99.90
19152;DHT22;9708;53.114;9.388;2023-12-22T09:39:20;5.40;99.90
19152;DHT22;9708;53.114;9.388;2023-12-22T09:41:48;5.30;99.90
19152;DHT22;9708;53.114;9.388;2023-12-22T09:44:18;5.30;99.90
19152;DHT22;9708;53.114;9.388;2023-12-22T09:46:48;5.30;99.90
19152;DHT22;9708;53.114;9.388;2023-12-22T09:49:16;5.20;99.90
19152;DHT22;9708;53.114;9.388;2023-12-22T09:51:44;5.20;99.90
19152;DHT22;9708;53.114;9.388;2023-12-22T09:54:13;5.10;99.90
19152;DHT22;9708;53.114;9.388;2023-12-22T09:56:41;5.10;99.90
19152;DHT22;9708;53.114;9.388;2023-12-22T09:59:11;5.10;99.90
19152;DHT22;9708;53.114;9.388;2023-12-22T10:01:40;5.30;99.90
19152;DHT22;9708;53.114;9.388;2023-12-22T10:04:10;5.40;99.90
19152;DHT22;9708;53.114;9.388;2023-12-22T10:06:37;5.40;99.90
19152;DHT22;9708;53.114;9.388;2023-12-22T10:09:05;5.30;99.90
19152;DHT22;9708;53.114;9.388;2023-12-22T10:11:34;5.30;99.90
19152;DHT22;9708;53.114;9.388;2023-12-22T10:14:02;5.20;99.90
19152;DHT22;9708;53.114;9.388;2023-12-22T10:16:30;5.30;99.90
19152;DHT22;9708;53.114;9.388;2023-12-22T10:18:58;5.20;99.90
19152;DHT22;9708;53.114;9.388;2023-12-22T10:21:27;5.10;99.90
19152;DHT22;9708;53.114;9.388;2023-12-22T10:23:56;5.10;99.90
19152;DHT22;9708;53.114;9.388;2023-12-22T10:26:23;5.10;99.90
19152;DHT22;9708;53.114;9.388;2023-12-22T10:28:50;5.20;99.90
19152;DHT22;9708;53.114;9.388;2023-12-22T10:31:18;5.10;99.90
19152;DHT22;9708;53.114;9.388;2023-12-22T10:33:44;5.10;99.90
19152;DHT22;9708;53.114;9.388;2023-12-22T10:36:12;5.20;99.90
19152;DHT22;9708;53.114;9.388;2023-12-22T10:38:40;5.20;99.90
19152;DHT22;9708;53.114;9.388;2023-12-22T10:41:08;5.00;99.90
19152;DHT22;9708;53.114;9.388;2023-12-22T10:43:39;5.00;99.90
19152;DHT22;9708;53.114;9.388;2023-12-22T10:46:07;4.80;99.90
19152;DHT22;9708;53.114;9.388;2023-12-22T10:48:36;4.70;99.90
19152;DHT22;9708;53.114;9.388;2023-12-22T10:51:03;4.70;99.90
19152;DHT22;9708;53.114;9.388;2023-12-22T10:53:35;4.70;99.90
19152;DHT22;9708;53.114;9.388;2023-12-22T10:56:04;4.70;99.90
19152;DHT22;9708;53.114;9.388;2023-12-22T10:58:30;4.80;99.90
19152;DHT22;9708;53.114;9.388;2023-12-22T11:00:58;4.80;99.90
19152;DHT22;9708;53.114;9.388;2023-12-22T11:03:27;4.80;99.90
19152;DHT22;9708;53.114;9.388;2023-12-22T11:05:57;4.80;99.90
19152;DHT22;9708;53.114;9.388;2023-12-22T11:08:26;5.20;99.90
19152;DHT22;9708;53.114;9.388;2023-12-22T11:10:58;5.90;99.90
19152;DHT22;9708;53.114;9.388;2023-12-22T11:13:32;6.70;99.90
19152;DHT22;9708;53.114;9.388;2023-12-22T11:16:00;7.10;99.90
19152;DHT22;9708;53.114;9.388;2023-12-22T11:18:28;7.40;99.90
19152;DHT22;9708;53.114;9.388;2023-12-22T11:20:57;7.70;99.90
19152;DHT22;9708;53.114;9.388;2023-12-22T11:23:25;8.20;99.90
19152;DHT22;9708;53.114;9.388;2023-12-22T11:25:53;8.50;99.90
19152;DHT22;9708;53.114;9.388;2023-12-22T11:28:20;7.60;99.90
19152;DHT22;9708;53.114;9.388;2023-12-22T11:30:50;7.00;99.90
19152;DHT22;9708;53.114;9.388;2023-12-22T11:33:18;6.70;99.90
19152;DHT22;9708;53.114;9.388;2023-12-22T11:35:46;6.40;99.90
19152;DHT22;9708;53.114;9.388;2023-12-22T11:38:13;6.10;99.90
19152;DHT22;9708;53.114;9.388;2023-12-22T11:40:40;6.10;99.90
19152;DHT22;9708;53.114;9.388;2023-12-22T11:43:08;6.20;99.90
19152;DHT22;9708;53.114;9.388;2023-12-22T11:45:35;6.10;99.90
19152;DHT22;9708;53.114;9.388;2023-12-22T11:48:07;6.20;99.90
19152;DHT22;9708;53.114;9.388;2023-12-22T11:50:35;6.30;99.90
19152;DHT22;9708;53.114;9.388;2023-12-22T11:53:20;6.10;99.90
19152;DHT22;9708;53.114;9.388;2023-12-22T11:56:01;5.90;99.90
19152;DHT22;9708;53.114;9.388;2023-12-22T11:58:37;6.00;99.90
19152;DHT22;9708;53.114;9.388;2023-12-22T12:01:06;6.00;99.90
19152;DHT22;9708;53.114;9.388;2023-12-22T12:03:36;6.00;99.90
19152;DHT22;9708;53.114;9.388;2023-12-22T12:06:30;6.10;99.90
19152;DHT22;9708;53.114;9.388;2023-12-22T12:08:58;6.20;99.90
19152;DHT22;9708;53.114;9.388;2023-12-22T12:12:09;6.20;99.90
19152;DHT22;9708;53.114;9.388;2023-12-22T12:14:41;6.10;99.90
19152;DHT22;9708;53.114;9.388;2023-12-22T12:17:09;6.10;99.90
19152;DHT22;9708;53.114;9.388;2023-12-22T12:19:39;6.10;99.90
19152;DHT22;9708;53.114;9.388;2023-12-22T12:22:07;6.20;99.90
19152;DHT22;9708;53.114;9.388;2023-12-22T12:24:36;6.20;99.90
19152;DHT22;9708;53.114;9.388;2023-12-22T12:27:03;6.10;99.90
19152;DHT22;9708;53.114;9.388;2023-12-22T12:29:31;6.10;99.90
19152;DHT22;9708;53.114;9.388;2023-12-22T12:32:03;6.10;99.90
19152;DHT22;9708;53.114;9.388;2023-12-22T12:34:31;6.10;99.90
19152;DHT22;9708;53.114;9.388;2023-12-22T12:37:00;6.00;99.90
19152;DHT22;9708;53.114;9.388;2023-12-22T12:39:30;6.00;99.90
19152;DHT22;9708;53.114;9.388;2023-12-22T12:41:59;6.00;99.90
19152;DHT22;9708;53.114;9.388;2023-12-22T12:44:27;5.90;99.90
19152;DHT22;9708;53.114;9.388;2023-12-22T12:46:54;5.80;99.90
19152;DHT22;9708;53.114;9.388;2023-12-22T12:49:21;5.80;99.90
19152;DHT22;9708;53.114;9.388;2023-12-22T12:51:52;5.70;99.90
19152;DHT22;9708;53.114;9.388;2023-12-22T12:54:20;5.90;99.90
19152;DHT22;9708;53.114;9.388;2023-12-22T12:56:49;5.90;99.90
19152;DHT22;9708;53.114;9.388;2023-12-22T12:59:17;5.90;99.90
19152;DHT22;9708;53.114;9.388;2023-12-22T13:01:45;5.90;99.90
19152;DHT22;9708;53.114;9.388;2023-12-22T13:04:13;5.90;99.90
19152;DHT22;9708;53.114;9.388;2023-12-22T13:06:43;6.00;99.90
19152;DHT22;9708;53.114;9.388;2023-12-22T13:09:10;6.00;99.90
19152;DHT22;9708;53.114;9.388;2023-12-22T13:11:40;6.00;99.90
19152;DHT22;9708;53.114;9.388;2023-12-22T13:14:08;5.90;99.90
19152;DHT22;9708;53.114;9.388;2023-12-22T13:16:35;5.80;99.90
19152;DHT22;9708;53.114;9.388;2023-12-22T13:19:02;5.80;99.90
19152;DHT22;9708;53.114;9.388;2023-12-22T13:21:29;5.80;99.90
19152;DHT22;9708;53.114;9.388;2023-12-22T13:24:09;5.80;99.90
19152;DHT22;9708;53.114;9.388;2023-12-22T13:26:36;5.80;99.90
19152;DHT22;9708;53.114;9.388;2023-12-22T13:29:05;5.80;99.90
19152;DHT22;9708;53.114;9.388;2023-12-22T13:31:32;5.80;99.90
19152;DHT22;9708;53.114;9.388;2023-12-22T13:33:59;5.80;99.90
19152;DHT22;9708;53.114;9.388;2023-12-22T13:36:26;5.90;99.90
19152;DHT22;9708;53.114;9.388;2023-12-22T13:38:54;5.90;99.90
19152;DHT22;9708;53.114;9.388;2023-12-22T13:41:21;5.90;99.90
19152;DHT22;9708;53.114;9.388;2023-12-22T13:43:48;5.90;99.90
19152;DHT22;9708;53.114;9.388;2023-12-22T13:46:16;5.80;99.90
19152;DHT22;9708;53.114;9.388;2023-12-22T13:48:43;5.80;99.90
19152;DHT22;9708;53.114;9.388;2023-12-22T13:51:11;5.90;99.90
19152;DHT22;9708;53.114;9.388;2023-12-22T13:53:46;6.00;99.90
19152;DHT22;9708;53.114;9.388;2023-12-22T13:56:13;6.00;99.90
19152;DHT22;9708;53.114;9.388;2023-12-22T13:58:44;6.10;99.90
19152;DHT22;9708;53.114;9.388;2023-12-22T14:01:13;6.00;99.90
19152;DHT22;9708;53.114;9.388;2023-12-22T14:03:42;6.10;99.90
19152;DHT22;9708;53.114;9.388;2023-12-22T14:06:10;6.10;99.90
19152;DHT22;9708;53.114;9.388;2023-12-22T14:08:39;6.10;99.90
19152;DHT22;9708;53.114;9.388;2023-12-22T14:11:06;6.00;99.90
19152;DHT22;9708;53.114;9.388;2023-12-22T14:13:33;6.10;99.90
19152;DHT22;9708;53.114;9.388;2023-12-22T14:16:01;6.10;99.90
19152;DHT22;9708;53.114;9.388;2023-12-22T14:18:28;6.20;99.90
19152;DHT22;9708;53.114;9.388;2023-12-22T14:20:56;6.20;99.90
19152;DHT22;9708;53.114;9.388;2023-12-22T14:23:24;6.20;99.90
19152;DHT22;9708;53.114;9.388;2023-12-22T14:25:51;6.20;99.90
19152;DHT22;9708;53.114;9.388;2023-12-22T14:28:18;6.20;99.90
19152;DHT22;9708;53.114;9.388;2023-12-22T14:30:45;6.20;99.90
19152;DHT22;9708;53.114;9.388;2023-12-22T14:33:11;6.20;99.90
19152;DHT22;9708;53.114;9.388;2023-12-22T14:35:39;6.20;99.90
19152;DHT22;9708;53.114;9.388;2023-12-22T14:38:07;6.20;99.90
19152;DHT22;9708;53.114;9.388;2023-12-22T14:40:34;6.10;99.90
19152;DHT22;9708;53.114;9.388;2023-12-22T14:43:01;6.10;99.90
19152;DHT22;9708;53.114;9.388;2023-12-22T14:45:28;6.20;99.90
19152;DHT22;9708;53.114;9.388;2023-12-22T14:47:55;6.10;99.90
19152;DHT22;9708;53.114;9.388;2023-12-22T14:50:22;6.00;99.90
19152;DHT22;9708;53.114;9.388;2023-12-22T14:52:49;5.90;99.90
19152;DHT22;9708;53.114;9.388;2023-12-22T14:55:17;5.80;99.90
19152;DHT22;9708;53.114;9.388;2023-12-22T14:57:45;5.90;99.90
19152;DHT22;9708;53.114;9.388;2023-12-22T15:00:13;5.80;99.90
19152;DHT22;9708;53.114;9.388;2023-12-22T15:02:40;5.80;99.90
19152;DHT22;9708;53.114;9.388;2023-12-22T15:05:07;5.70;99.90
19152;DHT22;9708;53.114;9.388;2023-12-22T15:07:34;5.70;99.90
19152;DHT22;9708;53.114;9.388;2023-12-22T15:10:01;5.60;99.90
19152;DHT22;9708;53.114;9.388;2023-12-22T15:12:32;5.60;99.90
19152;DHT22;9708;53.114;9.388;2023-12-22T15:15:02;5.60;99.90
19152;DHT22;9708;53.114;9.388;2023-12-22T15:17:29;5.60;99.90
19152;DHT22;9708;53.114;9.388;2023-12-22T15:19:56;5.60;99.90
19152;DHT22;9708;53.114;9.388;2023-12-22T15:22:23;5.50;99.90
19152;DHT22;9708;53.114;9.388;2023-12-22T15:24:50;5.40;99.90
19152;DHT22;9708;53.114;9.388;2023-12-22T15:27:17;5.40;99.90
19152;DHT22;9708;53.114;9.388;2023-12-22T15:29:46;5.30;99.90
19152;DHT22;9708;53.114;9.388;2023-12-22T15:32:13;5.20;99.90
19152;DHT22;9708;53.114;9.388;2023-12-22T15:34:41;5.10;99.90
19152;DHT22;9708;53.114;9.388;2023-12-22T15:37:08;5.10;99.90
19152;DHT22;9708;53.114;9.388;2023-12-22T15:39:35;5.20;99.90
19152;DHT22;9708;53.114;9.388;2023-12-22T15:42:03;5.30;99.90
19152;DHT22;9708;53.114;9.388;2023-12-22T15:44:30;5.30;99.90
19152;DHT22;9708;53.114;9.388;2023-12-22T15:46:58;5.30;99.90
19152;DHT22;9708;53.114;9.388;2023-12-22T15:49:25;5.50;99.90
19152;DHT22;9708;53.114;9.388;2023-12-22T15:51:53;5.50;99.90
19152;DHT22;9708;53.114;9.388;2023-12-22T15:54:21;5.40;99.90
19152;DHT22;9708;53.114;9.388;2023-12-22T15:56:48;5.40;99.90
19152;DHT22;9708;53.114;9.388;2023-12-22T15:59:15;5.40;99.90
19152;DHT22;9708;53.114;9.388;2023-12-22T16:01:43;5.30;99.90
19152;DHT22;9708;53.114;9.388;2023-12-22T16:04:11;5.30;99.90
19152;DHT22;9708;53.114;9.388;2023-12-22T16:06:38;5.10;99.90